createdAt,value
2023-10-27T00:00:55.480Z,10.50
2023-10-27T00:03:22.013Z,10.48
2023-10-27T00:05:48.487Z,10.48
2023-10-27T00:08:15.049Z,10.49
2023-10-27T00:10:41.553Z,10.49
2023-10-27T00:13:08.579Z,10.51
2023-10-27T00:15:35.032Z,10.52
2023-10-27T00:18:01.605Z,10.57
2023-10-27T00:20:28.204Z,10.59
2023-10-27T00:22:54.683Z,10.61
2023-10-27T00:25:21.244Z,10.57
2023-10-27T00:27:47.848Z,10.57
2023-10-27T00:30:14.524Z,10.55
2023-10-27T00:32:41.458Z,10.54
2023-10-27T00:35:08.268Z,10.55
2023-10-27T00:37:35.467Z,10.57
2023-10-27T00:40:03.384Z,10.55
2023-10-27T00:42:30.095Z,10.57
2023-10-27T00:44:57.455Z,10.58
2023-10-27T00:47:27.576Z,10.57
2023-10-27T00:49:55.693Z,10.60
2023-10-27T00:52:25.799Z,10.60
2023-10-27T00:54:54.430Z,10.61
2023-10-27T00:57:27.892Z,10.62
2023-10-27T00:59:54.594Z,10.62
2023-10-27T01:02:22.420Z,10.61
2023-10-27T01:04:49.741Z,10.58
2023-10-27T01:07:16.880Z,10.56
2023-10-27T01:09:43.626Z,10.53
2023-10-27T01:12:10.223Z,10.51
2023-10-27T01:14:37.987Z,10.51
2023-10-27T01:17:04.476Z,10.49
2023-10-27T01:19:31.047Z,10.46
2023-10-27T01:21:57.638Z,10.46
2023-10-27T01:24:24.880Z,10.46
2023-10-27T01:26:51.387Z,10.47
2023-10-27T01:29:17.909Z,10.49
2023-10-27T01:31:44.387Z,10.53
2023-10-27T01:34:12.151Z,10.55
2023-10-27T01:36:38.822Z,10.55
2023-10-27T01:39:06.586Z,10.52
2023-10-27T01:41:33.075Z,10.52
2023-10-27T01:43:59.744Z,10.52
2023-10-27T01:46:26.272Z,10.52
2023-10-27T01:48:52.947Z,10.50
2023-10-27T01:51:19.761Z,10.48
2023-10-27T01:53:46.536Z,10.48
2023-10-27T01:56:13.013Z,10.49
2023-10-27T01:58:45.079Z,10.49
2023-10-27T02:01:13.911Z,10.50
2023-10-27T02:03:40.460Z,10.51
2023-10-27T02:06:07.005Z,10.50
2023-10-27T02:08:36.305Z,10.48
2023-10-27T02:11:03.781Z,10.46
2023-10-27T02:13:30.589Z,10.43
2023-10-27T02:15:57.416Z,10.40
2023-10-27T02:18:23.962Z,10.43
2023-10-27T02:20:50.462Z,10.40
2023-10-27T02:23:17.127Z,10.37
2023-10-27T02:25:43.631Z,10.38
2023-10-27T02:28:10.251Z,10.40
2023-10-27T02:30:36.853Z,10.40
2023-10-27T02:33:03.985Z,10.42
2023-10-27T02:35:31.055Z,10.42
2023-10-27T02:37:57.598Z,10.43
2023-10-27T02:40:24.028Z,10.45
2023-10-27T02:42:51.392Z,10.45
2023-10-27T02:45:17.965Z,10.44
2023-10-27T02:47:44.531Z,10.43
2023-10-27T02:50:10.990Z,10.42
2023-10-27T02:52:37.482Z,10.44
2023-10-27T02:55:04.212Z,10.44
2023-10-27T02:57:30.718Z,10.44
2023-10-27T02:59:58.391Z,10.43
2023-10-27T03:02:25.056Z,10.43
2023-10-27T03:04:53.196Z,10.42
2023-10-27T03:07:19.953Z,10.39
2023-10-27T03:09:46.667Z,10.37
2023-10-27T03:12:13.609Z,10.39
2023-10-27T03:14:40.090Z,10.42
2023-10-27T03:17:06.632Z,10.40
2023-10-27T03:19:33.192Z,10.38
2023-10-27T03:22:01.330Z,10.39
2023-10-27T03:24:27.958Z,10.43
2023-10-27T03:26:54.456Z,10.42
2023-10-27T03:29:21.108Z,10.43
2023-10-27T03:31:47.657Z,10.40
2023-10-27T03:34:14.155Z,10.40
2023-10-27T03:36:41.273Z,10.33
2023-10-27T03:39:09.892Z,10.34
2023-10-27T03:41:36.357Z,10.36
2023-10-27T03:44:03.022Z,10.35
2023-10-27T03:46:31.092Z,10.38
2023-10-27T03:48:59.420Z,10.38
2023-10-27T03:51:26.771Z,10.40
2023-10-27T03:53:55.394Z,10.42
2023-10-27T03:56:21.880Z,10.43
2023-10-27T03:58:48.718Z,10.43
2023-10-27T04:01:16.211Z,10.42
2023-10-27T04:03:43.084Z,10.45
2023-10-27T04:06:09.813Z,10.37
2023-10-27T04:08:36.369Z,10.39
2023-10-27T04:11:02.834Z,10.44
2023-10-27T04:13:29.344Z,10.47
2023-10-27T04:15:55.904Z,10.47
2023-10-27T04:18:22.369Z,10.49
2023-10-27T04:20:48.803Z,10.49
2023-10-27T04:23:16.028Z,10.49
2023-10-27T04:25:42.568Z,10.47
2023-10-27T04:28:09.113Z,10.49
2023-10-27T04:30:37.405Z,10.54
2023-10-27T04:33:05.978Z,10.55
2023-10-27T04:35:33.589Z,10.55
2023-10-27T04:38:00.117Z,10.58
2023-10-27T04:40:29.172Z,10.57
2023-10-27T04:42:58.294Z,10.56
2023-10-27T04:45:26.196Z,10.55
2023-10-27T04:47:52.674Z,10.51
2023-10-27T04:50:19.132Z,10.52
2023-10-27T04:52:46.494Z,10.52
2023-10-27T04:55:13.908Z,10.53
2023-10-27T04:57:40.561Z,10.55
2023-10-27T05:00:09.322Z,10.55
2023-10-27T05:02:35.789Z,10.56
2023-10-27T05:05:02.548Z,10.56
2023-10-27T05:07:29.290Z,10.56
2023-10-27T05:09:55.798Z,10.57
2023-10-27T05:12:22.306Z,10.56
2023-10-27T05:14:48.820Z,10.59
2023-10-27T05:17:15.321Z,10.60
2023-10-27T05:19:41.855Z,10.59
2023-10-27T05:22:08.376Z,10.60
2023-10-27T05:24:35.521Z,10.59
2023-10-27T05:27:02.265Z,10.61
2023-10-27T05:29:28.724Z,10.61
2023-10-27T05:31:55.206Z,10.62
2023-10-27T05:34:21.803Z,10.62
2023-10-27T05:36:48.345Z,10.63
2023-10-27T05:39:17.826Z,10.64
2023-10-27T05:41:47.207Z,10.67
2023-10-27T05:44:16.737Z,10.69
2023-10-27T05:46:43.289Z,10.68
2023-10-27T05:49:09.796Z,10.65
2023-10-27T05:51:36.753Z,10.67
2023-10-27T05:54:04.372Z,10.67
2023-10-27T05:56:31.114Z,10.69
2023-10-27T05:58:57.697Z,10.69
2023-10-27T06:01:24.412Z,10.63
2023-10-27T06:03:51.014Z,10.63
2023-10-27T06:06:17.555Z,10.67
2023-10-27T06:08:45.405Z,10.68
2023-10-27T06:11:12.720Z,10.70
2023-10-27T06:13:39.268Z,10.71
2023-10-27T06:16:07.153Z,10.71
2023-10-27T06:18:34.094Z,10.72
2023-10-27T06:21:00.622Z,10.70
2023-10-27T06:23:31.916Z,10.71
2023-10-27T06:25:58.573Z,10.72
2023-10-27T06:28:25.092Z,10.69
2023-10-27T06:30:51.561Z,10.69
2023-10-27T06:33:18.101Z,10.70
2023-10-27T06:35:44.746Z,10.72
2023-10-27T06:38:11.225Z,10.71
2023-10-27T06:40:37.788Z,10.71
2023-10-27T06:43:05.071Z,10.70
2023-10-27T06:45:32.119Z,10.71
2023-10-27T06:47:58.601Z,10.71
2023-10-27T06:50:25.055Z,10.73
2023-10-27T06:52:51.548Z,10.74
2023-10-27T06:55:18.095Z,10.76
2023-10-27T06:57:44.978Z,10.77
2023-10-27T07:00:12.543Z,10.76
2023-10-27T07:02:49.524Z,10.78
2023-10-27T07:05:22.594Z,10.78
2023-10-27T07:07:49.213Z,10.78
2023-10-27T07:10:17.200Z,10.77
2023-10-27T07:12:44.734Z,10.79
2023-10-27T07:15:14.004Z,10.82
2023-10-27T07:17:43.837Z,10.82
2023-10-27T07:20:11.014Z,10.82
2023-10-27T07:22:38.873Z,10.83
2023-10-27T07:25:05.816Z,10.84
2023-10-27T07:27:34.294Z,10.85
2023-10-27T07:30:00.769Z,10.85
2023-10-27T07:32:27.256Z,10.86
2023-10-27T07:34:53.723Z,10.87
2023-10-27T07:37:21.607Z,10.90
2023-10-27T07:39:48.774Z,10.94
2023-10-27T07:42:15.296Z,10.94
2023-10-27T07:44:41.859Z,10.94
2023-10-27T07:47:08.341Z,10.93
2023-10-27T07:49:35.096Z,10.94
2023-10-27T07:52:04.326Z,10.95
2023-10-27T07:54:30.840Z,10.95
2023-10-27T07:56:57.297Z,10.99
2023-10-27T07:59:23.817Z,10.99
2023-10-27T08:01:50.302Z,11.01
2023-10-27T08:04:16.779Z,11.00
2023-10-27T08:06:43.229Z,10.99
2023-10-27T08:09:10.062Z,11.01
2023-10-27T08:11:36.469Z,11.01
2023-10-27T08:14:05.308Z,11.02
2023-10-27T08:16:32.733Z,11.00
2023-10-27T08:18:59.356Z,10.99
2023-10-27T08:21:27.114Z,10.98
2023-10-27T08:23:53.879Z,11.00
2023-10-27T08:26:20.303Z,11.01
2023-10-27T08:28:47.098Z,11.03
2023-10-27T08:31:14.715Z,11.05
2023-10-27T08:33:42.540Z,11.05
2023-10-27T08:36:09.028Z,11.06
2023-10-27T08:38:35.569Z,11.05
2023-10-27T08:41:02.839Z,11.06
2023-10-27T08:43:29.556Z,11.05
2023-10-27T08:45:56.931Z,11.07
2023-10-27T08:48:24.320Z,11.10
2023-10-27T08:50:52.553Z,11.12
2023-10-27T08:53:18.991Z,11.11
2023-10-27T08:55:45.462Z,11.12
2023-10-27T08:58:12.027Z,11.12
2023-10-27T09:00:38.551Z,11.13
2023-10-27T09:03:16.257Z,11.13
2023-10-27T09:05:43.306Z,11.15
2023-10-27T09:08:10.632Z,11.18
2023-10-27T09:10:37.916Z,11.18
2023-10-27T09:13:06.044Z,11.18
2023-10-27T09:15:45.101Z,11.21
2023-10-27T09:18:11.682Z,11.22
2023-10-27T09:20:51.778Z,11.23
2023-10-27T09:23:20.446Z,11.26
2023-10-27T09:25:47.982Z,11.27
2023-10-27T09:28:14.781Z,11.29
2023-10-27T09:30:43.468Z,11.30
2023-10-27T09:33:24.298Z,11.31
2023-10-27T09:35:52.623Z,11.31
2023-10-27T09:38:21.901Z,11.30
2023-10-27T09:40:48.912Z,11.31
2023-10-27T09:43:24.594Z,11.34
2023-10-27T09:46:01.771Z,11.33
2023-10-27T09:48:30.510Z,11.36
2023-10-27T09:51:07.685Z,11.39
2023-10-27T09:53:34.681Z,11.38
2023-10-27T09:56:02.505Z,11.41
2023-10-27T09:58:32.856Z,11.45
2023-10-27T10:01:02.064Z,11.48
2023-10-27T10:03:29.021Z,11.51
2023-10-27T10:06:08.606Z,11.51
2023-10-27T10:08:35.047Z,11.50
2023-10-27T10:11:14.742Z,11.50
2023-10-27T10:13:41.568Z,11.49
2023-10-27T10:16:09.861Z,11.52
2023-10-27T10:18:40.201Z,11.48
2023-10-27T10:21:07.471Z,11.48
2023-10-27T10:23:43.209Z,11.43
2023-10-27T10:26:09.807Z,11.46
2023-10-27T10:28:37.555Z,11.46
2023-10-27T10:31:17.913Z,11.50
2023-10-27T10:33:47.244Z,11.50
2023-10-27T10:36:19.451Z,11.51
2023-10-27T10:38:57.257Z,11.51
2023-10-27T10:41:42.081Z,11.49
2023-10-27T10:44:16.270Z,11.51
2023-10-27T10:46:47.670Z,11.50
2023-10-27T10:49:30.624Z,11.52
2023-10-27T10:51:58.681Z,11.51
2023-10-27T10:54:33.286Z,11.50
2023-10-27T10:57:04.974Z,11.52
2023-10-27T10:59:32.821Z,11.55
2023-10-27T11:01:59.761Z,11.55
2023-10-27T11:04:41.409Z,11.53
2023-10-27T11:07:08.876Z,11.50
2023-10-27T11:09:35.385Z,11.52
2023-10-27T11:12:04.018Z,11.50
2023-10-27T11:14:40.005Z,11.56
2023-10-27T11:17:06.847Z,11.56
2023-10-27T11:19:34.724Z,11.58
2023-10-27T11:22:01.248Z,11.61
2023-10-27T11:24:27.710Z,11.62
2023-10-27T11:26:54.134Z,11.63
2023-10-27T11:29:20.618Z,11.65
2023-10-27T11:31:48.552Z,11.65
2023-10-27T11:34:22.054Z,11.70
2023-10-27T11:37:00.418Z,11.70
2023-10-27T11:39:27.062Z,11.69
2023-10-27T11:42:03.329Z,11.70
2023-10-27T11:44:31.616Z,11.70
2023-10-27T11:47:00.490Z,11.69
2023-10-27T11:49:28.049Z,11.66
2023-10-27T11:51:57.125Z,11.67
2023-10-27T11:54:25.202Z,11.69
2023-10-27T11:56:51.748Z,11.70
2023-10-27T11:59:19.235Z,11.69
2023-10-27T12:01:45.981Z,11.69
2023-10-27T12:04:13.100Z,11.69
2023-10-27T12:06:40.923Z,11.71
2023-10-27T12:09:08.484Z,11.69
2023-10-27T12:11:35.597Z,11.69
2023-10-27T12:14:02.173Z,11.70
2023-10-27T12:16:28.841Z,11.72
2023-10-27T12:18:56.364Z,11.66
2023-10-27T12:21:24.216Z,11.63
2023-10-27T12:23:50.747Z,11.63
2023-10-27T12:26:17.679Z,11.64
2023-10-27T12:28:44.256Z,11.66
2023-10-27T12:31:10.916Z,11.67
2023-10-27T12:33:37.481Z,11.68
2023-10-27T12:36:10.243Z,11.72
2023-10-27T12:38:37.731Z,11.75
2023-10-27T12:41:05.530Z,11.76
2023-10-27T12:43:32.051Z,11.73
2023-10-27T12:46:05.433Z,11.71
2023-10-27T12:48:33.448Z,11.72
2023-10-27T12:51:01.551Z,11.72
2023-10-27T12:53:28.463Z,11.73
2023-10-27T12:55:58.451Z,11.73
2023-10-27T12:58:25.569Z,11.74
2023-10-27T13:00:53.635Z,11.75
2023-10-27T13:03:20.210Z,11.75
2023-10-27T13:05:48.040Z,11.79
2023-10-27T13:08:15.696Z,11.78
2023-10-27T13:10:42.253Z,11.79
2023-10-27T13:13:10.964Z,11.76
2023-10-27T13:15:37.943Z,11.74
2023-10-27T13:18:04.689Z,11.71
2023-10-27T13:20:35.429Z,11.67
2023-10-27T13:23:03.975Z,11.69
2023-10-27T13:25:30.990Z,11.71
2023-10-27T13:27:57.669Z,11.71
2023-10-27T13:30:24.302Z,11.72
2023-10-27T13:32:51.377Z,11.71
2023-10-27T13:35:20.044Z,11.70
2023-10-27T13:37:46.532Z,11.74
2023-10-27T13:40:15.439Z,11.77
2023-10-27T13:42:42.146Z,11.78
2023-10-27T13:45:08.882Z,11.78
2023-10-27T13:47:35.415Z,11.75
2023-10-27T13:50:01.916Z,11.76
2023-10-27T13:52:28.486Z,11.74
2023-10-27T13:54:54.954Z,11.73
2023-10-27T13:57:22.588Z,11.67
2023-10-27T13:59:49.048Z,11.67
2023-10-27T14:02:15.903Z,11.69
2023-10-27T14:04:43.045Z,11.67
2023-10-27T14:07:10.696Z,11.67
2023-10-27T14:09:37.823Z,11.70
2023-10-27T14:12:05.262Z,11.71
2023-10-27T14:14:31.804Z,11.72
2023-10-27T14:17:01.001Z,11.75
2023-10-27T14:19:29.439Z,11.76
2023-10-27T14:21:57.828Z,11.76
2023-10-27T14:24:24.422Z,11.78
2023-10-27T14:26:51.207Z,11.78
2023-10-27T14:29:17.812Z,11.78
2023-10-27T14:31:44.872Z,11.79
2023-10-27T14:34:11.480Z,11.73
2023-10-27T14:36:39.069Z,11.74
2023-10-27T14:39:07.081Z,11.74
2023-10-27T14:41:35.323Z,11.77
2023-10-27T14:44:02.296Z,11.77
2023-10-27T14:46:31.404Z,11.76
2023-10-27T14:48:58.103Z,11.77
2023-10-27T14:51:26.002Z,11.78
2023-10-27T14:53:52.657Z,11.76
2023-10-27T14:56:19.102Z,11.72
2023-10-27T14:58:45.570Z,11.71
2023-10-27T15:01:15.791Z,11.72
2023-10-27T15:03:42.955Z,11.73
2023-10-27T15:06:10.853Z,11.73
2023-10-27T15:08:38.601Z,11.71
2023-10-27T15:11:08.591Z,11.69
2023-10-27T15:13:35.389Z,11.71
2023-10-27T15:16:14.443Z,11.72
2023-10-27T15:18:44.208Z,11.74
2023-10-27T15:21:16.412Z,11.70
2023-10-27T15:23:42.874Z,11.69
2023-10-27T15:26:09.475Z,11.64
2023-10-27T15:28:36.072Z,11.67
2023-10-27T15:31:04.550Z,11.70
2023-10-27T15:33:32.031Z,11.70
2023-10-27T15:36:06.165Z,11.73
2023-10-27T15:38:33.930Z,11.77
2023-10-27T15:41:01.093Z,11.82
2023-10-27T15:43:30.177Z,11.85
2023-10-27T15:46:04.271Z,11.88
2023-10-27T15:48:33.552Z,11.88
2023-10-27T15:51:04.026Z,11.91
2023-10-27T15:53:32.738Z,11.91
2023-10-27T15:56:02.361Z,11.92
2023-10-27T15:58:29.039Z,11.94
2023-10-27T16:00:57.336Z,11.95
2023-10-27T16:03:25.376Z,11.94
2023-10-27T16:05:53.265Z,11.94
2023-10-27T16:08:19.938Z,12.00
2023-10-27T16:10:46.459Z,12.08
2023-10-27T16:13:13.222Z,12.13
2023-10-27T16:15:39.965Z,12.11
2023-10-27T16:18:08.984Z,12.07
2023-10-27T16:20:37.689Z,12.04
2023-10-27T16:23:05.323Z,12.03
2023-10-27T16:25:33.734Z,11.97
2023-10-27T16:28:01.224Z,11.96
2023-10-27T16:30:28.387Z,11.96
2023-10-27T16:32:54.867Z,11.95
2023-10-27T16:35:21.411Z,11.92
2023-10-27T16:37:47.897Z,11.91
2023-10-27T16:40:14.482Z,11.88
2023-10-27T16:42:41.894Z,11.83
2023-10-27T16:45:08.707Z,11.79
2023-10-27T16:47:38.152Z,11.81
2023-10-27T16:50:06.161Z,11.81
2023-10-27T16:52:33.187Z,11.78
2023-10-27T16:55:01.559Z,11.80
2023-10-27T16:57:30.993Z,11.81
2023-10-27T16:59:57.484Z,11.79
2023-10-27T17:02:25.646Z,11.79
2023-10-27T17:04:53.518Z,11.78
2023-10-27T17:07:21.429Z,11.79
2023-10-27T17:09:54.023Z,11.81
2023-10-27T17:12:21.398Z,11.83
2023-10-27T17:14:54.452Z,11.85
2023-10-27T17:17:20.909Z,11.85
2023-10-27T17:19:51.232Z,11.87
2023-10-27T17:22:20.084Z,11.86
2023-10-27T17:24:47.534Z,11.83
2023-10-27T17:27:14.874Z,11.84
2023-10-27T17:29:41.338Z,11.83
2023-10-27T17:32:08.812Z,11.82
2023-10-27T17:34:35.398Z,11.84
2023-10-27T17:37:03.615Z,11.83
2023-10-27T17:39:30.026Z,11.80
2023-10-27T17:41:56.458Z,11.78
2023-10-27T17:44:23.674Z,11.78
2023-10-27T17:46:50.193Z,11.76
2023-10-27T17:49:18.075Z,11.74
2023-10-27T17:51:47.544Z,11.75
2023-10-27T17:54:14.370Z,11.75
2023-10-27T17:56:40.980Z,11.75
2023-10-27T17:59:10.131Z,11.72
2023-10-27T18:01:36.667Z,11.69
2023-10-27T18:04:04.113Z,11.67
2023-10-27T18:06:31.722Z,11.66
2023-10-27T18:08:58.342Z,11.66
2023-10-27T18:11:25.630Z,11.63
2023-10-27T18:13:52.399Z,11.64
2023-10-27T18:16:18.889Z,11.64
2023-10-27T18:18:45.431Z,11.62
2023-10-27T18:21:12.385Z,11.63
2023-10-27T18:23:40.652Z,11.62
2023-10-27T18:26:14.833Z,11.62
2023-10-27T18:28:41.646Z,11.58
2023-10-27T18:31:08.593Z,11.57
2023-10-27T18:33:35.057Z,11.53
2023-10-27T18:36:14.675Z,11.52
2023-10-27T18:38:42.357Z,11.51
2023-10-27T18:41:12.168Z,11.48
2023-10-27T18:43:40.628Z,11.51
2023-10-27T18:46:11.179Z,11.51
2023-10-27T18:48:38.030Z,11.54
2023-10-27T18:51:04.685Z,11.50
2023-10-27T18:53:33.809Z,11.50
2023-10-27T18:56:07.532Z,11.50
2023-10-27T18:58:38.200Z,11.49
2023-10-27T19:01:09.699Z,11.46
2023-10-27T19:03:39.839Z,11.48
2023-10-27T19:06:06.979Z,11.48
2023-10-27T19:08:33.981Z,11.46
2023-10-27T19:11:11.863Z,11.42
2023-10-27T19:13:40.829Z,11.34
2023-10-27T19:16:09.434Z,11.33
2023-10-27T19:18:38.569Z,11.28
2023-10-27T19:21:11.707Z,11.30
2023-10-27T19:23:40.485Z,11.29
2023-10-27T19:26:15.396Z,11.30
2023-10-27T19:28:43.683Z,11.30
2023-10-27T19:31:15.049Z,11.29
2023-10-27T19:33:41.784Z,11.30
2023-10-27T19:36:09.064Z,11.30
2023-10-27T19:38:37.252Z,11.26
2023-10-27T19:41:05.314Z,11.23
2023-10-27T19:43:32.237Z,11.25
2023-10-27T19:45:59.178Z,11.23
2023-10-27T19:48:27.472Z,11.22
2023-10-27T19:50:54.050Z,11.24
2023-10-27T19:53:20.501Z,11.26
2023-10-27T19:55:47.114Z,11.26
2023-10-27T19:58:13.646Z,11.27
2023-10-27T20:00:40.357Z,11.21
2023-10-27T20:03:10.040Z,11.22
2023-10-27T20:05:38.173Z,11.22
2023-10-27T20:08:10.136Z,11.23
2023-10-27T20:10:43.358Z,11.21
2023-10-27T20:13:10.250Z,11.20
2023-10-27T20:15:39.218Z,11.18
2023-10-27T20:18:06.866Z,11.18
2023-10-27T20:20:34.143Z,11.14
2023-10-27T20:23:03.221Z,11.14
2023-10-27T20:25:35.560Z,11.11
2023-10-27T20:28:03.556Z,11.10
2023-10-27T20:30:30.786Z,11.08
2023-10-27T20:32:58.797Z,11.08
2023-10-27T20:35:26.239Z,11.07
2023-10-27T20:37:53.718Z,11.07
2023-10-27T20:40:21.350Z,11.09
2023-10-27T20:42:49.550Z,11.05
2023-10-27T20:45:17.374Z,11.05
2023-10-27T20:47:46.322Z,10.99
2023-10-27T20:50:13.715Z,10.98
2023-10-27T20:52:43.849Z,10.99
2023-10-27T20:55:11.152Z,11.02
2023-10-27T20:57:38.278Z,11.03
2023-10-27T21:00:05.259Z,11.03
2023-10-27T21:02:32.101Z,11.05
2023-10-27T21:04:59.246Z,11.06
2023-10-27T21:07:26.514Z,11.03
2023-10-27T21:09:53.358Z,11.01
2023-10-27T21:12:20.056Z,11.01
2023-10-27T21:14:47.486Z,10.98
2023-10-27T21:17:14.860Z,10.96
2023-10-27T21:19:41.567Z,10.86
2023-10-27T21:22:08.116Z,10.86
2023-10-27T21:24:35.097Z,10.85
2023-10-27T21:27:02.382Z,10.86
2023-10-27T21:29:28.804Z,10.85
2023-10-27T21:31:55.414Z,10.84
2023-10-27T21:34:22.020Z,10.84
2023-10-27T21:36:48.689Z,10.85
2023-10-27T21:39:15.981Z,10.77
2023-10-27T21:41:42.814Z,10.76
2023-10-27T21:44:09.245Z,10.76
2023-10-27T21:46:35.698Z,10.76
2023-10-27T21:49:02.166Z,10.75
2023-10-27T21:51:28.798Z,10.76
2023-10-27T21:53:55.636Z,10.76
2023-10-27T21:56:22.448Z,10.77
2023-10-27T21:58:49.263Z,10.71
2023-10-27T22:01:17.655Z,10.73
2023-10-27T22:03:44.231Z,10.72
2023-10-27T22:06:11.663Z,10.71
2023-10-27T22:08:42.459Z,10.70
2023-10-27T22:11:10.712Z,10.67
2023-10-27T22:13:39.429Z,10.64
2023-10-27T22:16:09.045Z,10.64
2023-10-27T22:18:36.164Z,10.71
2023-10-27T22:21:13.422Z,10.68
2023-10-27T22:23:41.459Z,10.68
2023-10-27T22:26:08.527Z,10.69
2023-10-27T22:28:35.082Z,10.67
2023-10-27T22:31:01.650Z,10.62
2023-10-27T22:33:28.162Z,10.64
2023-10-27T22:35:55.995Z,10.55
2023-10-27T22:38:22.770Z,10.53
2023-10-27T22:40:49.235Z,10.56
2023-10-27T22:43:18.446Z,10.56
2023-10-27T22:45:44.963Z,10.53
2023-10-27T22:48:11.450Z,10.58
2023-10-27T22:50:38.328Z,10.57
2023-10-27T22:53:05.022Z,10.55
2023-10-27T22:55:31.951Z,10.49
2023-10-27T22:57:59.234Z,10.51
2023-10-27T23:00:25.818Z,10.53
2023-10-27T23:02:52.673Z,10.50
2023-10-27T23:05:19.698Z,10.50
2023-10-27T23:07:46.848Z,10.48
2023-10-27T23:10:13.557Z,10.47
2023-10-27T23:12:40.722Z,10.47
2023-10-27T23:15:08.809Z,10.52
2023-10-27T23:17:35.447Z,10.55
2023-10-27T23:20:01.924Z,10.56
2023-10-27T23:22:29.239Z,10.52
2023-10-27T23:24:55.787Z,10.51
2023-10-27T23:27:22.268Z,10.52
2023-10-27T23:29:48.717Z,10.50
2023-10-27T23:32:16.554Z,10.50
2023-10-27T23:34:43.565Z,10.52
2023-10-27T23:37:10.422Z,10.53
2023-10-27T23:39:37.122Z,10.50
2023-10-27T23:42:03.846Z,10.48
2023-10-27T23:44:30.607Z,10.48
2023-10-27T23:46:57.336Z,10.48
2023-10-27T23:49:24.033Z,10.49
2023-10-27T23:51:50.473Z,10.49
2023-10-27T23:54:16.940Z,10.51
2023-10-27T23:56:43.394Z,10.47
2023-10-27T23:59:13.929Z,10.45
